sensor_id;sensor_type;location;lat;lon;timestamp;pressure;altitude;pressure_sealevel;temperature;humidity
19748;BME280;10032;51.386;12.516;2023-05-01T00:00:42;100685.97;;;6.14;100.00
19748;BME280;10032;51.386;12.516;2023-05-01T00:03:07;100680.56;;;6.07;100.00
19748;BME280;10032;51.386;12.516;2023-05-01T00:05:33;100678.13;;;5.99;100.00
19748;BME280;10032;51.386;12.516;2023-05-01T00:07:58;100671.47;;;5.95;100.00
19748;BME280;10032;51.386;12.516;2023-05-01T00:10:24;100666.31;;;5.94;100.00
19748;BME280;10032;51.386;12.516;2023-05-01T00:12:49;100672.94;;;5.91;100.00
19748;BME280;10032;51.386;12.516;2023-05-01T00:15:15;100661.97;;;5.86;100.00
19748;BME280;10032;51.386;12.516;2023-05-01T00:17:41;100657.59;;;5.79;100.00
19748;BME280;10032;51.386;12.516;2023-05-01T00:20:07;100660.25;;;5.72;100.00
19748;BME280;10032;51.386;12.516;2023-05-01T00:22:32;100663.19;;;5.71;100.00
19748;BME280;10032;51.386;12.516;2023-05-01T00:24:58;100663.16;;;5.64;100.00
19748;BME280;10032;51.386;12.516;2023-05-01T00:27:23;100653.66;;;5.62;100.00
19748;BME280;10032;51.386;12.516;2023-05-01T00:29:49;100643.72;;;5.56;100.00
19748;BME280;10032;51.386;12.516;2023-05-01T00:32:15;100645.78;;;5.54;100.00
19748;BME280;10032;51.386;12.516;2023-05-01T00:34:41;100638.31;;;5.49;100.00
19748;BME280;10032;51.386;12.516;2023-05-01T00:37:06;100639.97;;;5.50;100.00
19748;BME280;10032;51.386;12.516;2023-05-01T00:39:32;100633.78;;;5.50;100.00
19748;BME280;10032;51.386;12.516;2023-05-01T00:41:57;100643.69;;;5.49;100.00
19748;BME280;10032;51.386;12.516;2023-05-01T00:44:22;100643.09;;;5.47;100.00
19748;BME280;10032;51.386;12.516;2023-05-01T00:46:48;100629.00;;;5.45;100.00
19748;BME280;10032;51.386;12.516;2023-05-01T00:49:14;100629.25;;;5.44;100.00
19748;BME280;10032;51.386;12.516;2023-05-01T00:51:41;100621.38;;;5.42;100.00
19748;BME280;10032;51.386;12.516;2023-05-01T00:54:08;100622.63;;;5.40;100.00
19748;BME280;10032;51.386;12.516;2023-05-01T00:56:33;100618.47;;;5.37;100.00
19748;BME280;10032;51.386;12.516;2023-05-01T00:58:59;100616.00;;;5.36;100.00
19748;BME280;10032;51.386;12.516;2023-05-01T01:01:25;100613.13;;;5.37;100.00
19748;BME280;10032;51.386;12.516;2023-05-01T01:03:51;100599.88;;;5.36;100.00
19748;BME280;10032;51.386;12.516;2023-05-01T01:32:08;100563.25;;;5.02;100.00
19748;BME280;10032;51.386;12.516;2023-05-01T01:34:50;100558.31;;;4.99;100.00
19748;BME280;10032;51.386;12.516;2023-05-01T01:37:31;100547.34;;;4.94;100.00
19748;BME280;10032;51.386;12.516;2023-05-01T01:40:06;100554.38;;;4.95;100.00
19748;BME280;10032;51.386;12.516;2023-05-01T01:42:39;100556.22;;;4.88;100.00
19748;BME280;10032;51.386;12.516;2023-05-01T01:45:11;100551.25;;;4.85;100.00
19748;BME280;10032;51.386;12.516;2023-05-01T01:47:40;100544.84;;;4.86;100.00
19748;BME280;10032;51.386;12.516;2023-05-01T01:50:07;100549.81;;;4.89;100.00
19748;BME280;10032;51.386;12.516;2023-05-01T01:52:35;100553.31;;;4.83;100.00
19748;BME280;10032;51.386;12.516;2023-05-01T01:55:04;100551.63;;;4.82;100.00
19748;BME280;10032;51.386;12.516;2023-05-01T01:57:31;100550.19;;;4.80;100.00
19748;BME280;10032;51.386;12.516;2023-05-01T01:59:57;100546.69;;;4.79;100.00
19748;BME280;10032;51.386;12.516;2023-05-01T02:02:23;100536.53;;;4.75;100.00
19748;BME280;10032;51.386;12.516;2023-05-01T02:04:52;100533.66;;;4.76;100.00
19748;BME280;10032;51.386;12.516;2023-05-01T02:07:21;100537.81;;;4.79;100.00
19748;BME280;10032;51.386;12.516;2023-05-01T02:09:48;100537.38;;;4.75;100.00
19748;BME280;10032;51.386;12.516;2023-05-01T02:12:16;100523.34;;;4.73;100.00
19748;BME280;10032;51.386;12.516;2023-05-01T02:14:43;100530.38;;;4.74;100.00
19748;BME280;10032;51.386;12.516;2023-05-01T02:17:09;100534.50;;;4.77;100.00
19748;BME280;10032;51.386;12.516;2023-05-01T02:19:37;100534.09;;;4.73;100.00
19748;BME280;10032;51.386;12.516;2023-05-01T02:22:06;100527.47;;;4.69;100.00
19748;BME280;10032;51.386;12.516;2023-05-01T02:24:34;100517.97;;;4.67;100.00
19748;BME280;10032;51.386;12.516;2023-05-01T02:27:14;100521.03;;;4.64;100.00
19748;BME280;10032;51.386;12.516;2023-05-01T02:29:41;100523.31;;;4.60;100.00
19748;BME280;10032;51.386;12.516;2023-05-01T02:32:07;100511.31;;;4.56;100.00
19748;BME280;10032;51.386;12.516;2023-05-01T02:34:35;100510.09;;;4.52;100.00
19748;BME280;10032;51.386;12.516;2023-05-01T02:37:03;100507.56;;;4.44;100.00
19748;BME280;10032;51.386;12.516;2023-05-01T02:39:30;100510.88;;;4.40;100.00
19748;BME280;10032;51.386;12.516;2023-05-01T02:41:57;100500.94;;;4.40;100.00
19748;BME280;10032;51.386;12.516;2023-05-01T02:44:25;100500.94;;;4.40;100.00
19748;BME280;10032;51.386;12.516;2023-05-01T02:46:52;100500.13;;;4.40;100.00
19748;BME280;10032;51.386;12.516;2023-05-01T02:49:19;100491.88;;;4.35;100.00
19748;BME280;10032;51.386;12.516;2023-05-01T02:51:45;100498.28;;;4.34;100.00
19748;BME280;10032;51.386;12.516;2023-05-01T02:54:12;100484.44;;;4.30;100.00
19748;BME280;10032;51.386;12.516;2023-05-01T02:56:38;100486.47;;;4.28;100.00
19748;BME280;10032;51.386;12.516;2023-05-01T02:59:03;100483.19;;;4.26;100.00
19748;BME280;10032;51.386;12.516;2023-05-01T03:01:29;100480.31;;;4.28;100.00
19748;BME280;10032;51.386;12.516;2023-05-01T03:03:54;100471.63;;;4.26;100.00
19748;BME280;10032;51.386;12.516;2023-05-01T03:06:20;100478.22;;;4.23;100.00
19748;BME280;10032;51.386;12.516;2023-05-01T03:08:45;100475.72;;;4.22;100.00
19748;BME280;10032;51.386;12.516;2023-05-01T03:11:12;100480.28;;;4.21;100.00
19748;BME280;10032;51.386;12.516;2023-05-01T03:13:37;100475.53;;;4.17;100.00
19748;BME280;10032;51.386;12.516;2023-05-01T03:16:03;100465.56;;;4.11;100.00
19748;BME280;10032;51.386;12.516;2023-05-01T03:18:28;100463.53;;;4.13;100.00
19748;BME280;10032;51.386;12.516;2023-05-01T03:20:54;100460.03;;;4.12;100.00
19748;BME280;10032;51.386;12.516;2023-05-01T03:23:23;100458.38;;;4.11;100.00
19748;BME280;10032;51.386;12.516;2023-05-01T03:25:49;100455.88;;;4.10;100.00
19748;BME280;10032;51.386;12.516;2023-05-01T03:28:15;100456.06;;;4.08;100.00
19748;BME280;10032;51.386;12.516;2023-05-01T03:30:42;100451.13;;;4.05;100.00
19748;BME280;10032;51.386;12.516;2023-05-01T03:33:08;100448.03;;;4.02;100.00
19748;BME280;10032;51.386;12.516;2023-05-01T03:35:33;100451.72;;;4.01;100.00
19748;BME280;10032;51.386;12.516;2023-05-01T03:37:58;100444.31;;;4.03;100.00
19748;BME280;10032;51.386;12.516;2023-05-01T03:40:24;100442.44;;;4.03;100.00
19748;BME280;10032;51.386;12.516;2023-05-01T03:42:49;100445.13;;;4.03;100.00
19748;BME280;10032;51.386;12.516;2023-05-01T03:45:15;100430.72;;;4.04;100.00
19748;BME280;10032;51.386;12.516;2023-05-01T03:47:40;100429.69;;;4.05;100.00
19748;BME280;10032;51.386;12.516;2023-05-01T03:50:06;100431.34;;;4.06;100.00
19748;BME280;10032;51.386;12.516;2023-05-01T03:52:32;100431.94;;;4.08;100.00
19748;BME280;10032;51.386;12.516;2023-05-01T03:54:58;100426.19;;;4.11;100.00
19748;BME280;10032;51.386;12.516;2023-05-01T03:57:23;100419.22;;;4.17;100.00
19748;BME280;10032;51.386;12.516;2023-05-01T03:59:49;100411.59;;;4.20;100.00
19748;BME280;10032;51.386;12.516;2023-05-01T04:02:14;100412.59;;;4.19;100.00
19748;BME280;10032;51.386;12.516;2023-05-01T04:04:40;100416.75;;;4.28;100.00
19748;BME280;10032;51.386;12.516;2023-05-01T04:07:05;100414.72;;;4.37;100.00
19748;BME280;10032;51.386;12.516;2023-05-01T04:09:31;100413.09;;;4.42;100.00
19748;BME280;10032;51.386;12.516;2023-05-01T04:11:57;100416.00;;;4.47;100.00
19748;BME280;10032;51.386;12.516;2023-05-01T04:14:22;100415.16;;;4.53;100.00
19748;BME280;10032;51.386;12.516;2023-05-01T04:16:48;100414.56;;;4.64;100.00
19748;BME280;10032;51.386;12.516;2023-05-01T04:19:15;100417.88;;;4.79;100.00
19748;BME280;10032;51.386;12.516;2023-05-01T04:21:40;100426.56;;;4.88;100.00
19748;BME280;10032;51.386;12.516;2023-05-01T04:24:06;100426.75;;;4.93;100.00
19748;BME280;10032;51.386;12.516;2023-05-01T04:26:32;100422.84;;;5.02;100.00
19748;BME280;10032;51.386;12.516;2023-05-01T04:28:57;100426.75;;;5.12;100.00
19748;BME280;10032;51.386;12.516;2023-05-01T04:31:22;100433.75;;;5.20;100.00
19748;BME280;10032;51.386;12.516;2023-05-01T04:33:48;100423.22;;;5.31;100.00
19748;BME280;10032;51.386;12.516;2023-05-01T04:36:13;100431.19;;;5.77;100.00
19748;BME280;10032;51.386;12.516;2023-05-01T04:38:39;100424.00;;;6.21;100.00
19748;BME280;10032;51.386;12.516;2023-05-01T04:41:04;100422.84;;;6.35;100.00
19748;BME280;10032;51.386;12.516;2023-05-01T04:43:30;100430.88;;;6.48;100.00
19748;BME280;10032;51.386;12.516;2023-05-01T04:45:56;100427.50;;;6.59;100.00
19748;BME280;10032;51.386;12.516;2023-05-01T04:48:21;100415.59;;;6.73;100.00
19748;BME280;10032;51.386;12.516;2023-05-01T04:50:47;100418.50;;;6.96;100.00
19748;BME280;10032;51.386;12.516;2023-05-01T04:53:12;100405.88;;;7.21;100.00
19748;BME280;10032;51.386;12.516;2023-05-01T04:55:38;100404.50;;;7.30;100.00
19748;BME280;10032;51.386;12.516;2023-05-01T04:58:04;100407.28;;;7.24;100.00
19748;BME280;10032;51.386;12.516;2023-05-01T05:00:29;100398.03;;;6.95;100.00
19748;BME280;10032;51.386;12.516;2023-05-01T05:02:55;100402.44;;;6.83;100.00
19748;BME280;10032;51.386;12.516;2023-05-01T05:05:21;100397.31;;;6.82;100.00
19748;BME280;10032;51.386;12.516;2023-05-01T05:07:46;100397.84;;;6.90;100.00
19748;BME280;10032;51.386;12.516;2023-05-01T05:10:12;100400.16;;;7.11;100.00
19748;BME280;10032;51.386;12.516;2023-05-01T05:12:38;100402.13;;;7.40;100.00
19748;BME280;10032;51.386;12.516;2023-05-01T05:15:04;100411.59;;;7.67;100.00
19748;BME280;10032;51.386;12.516;2023-05-01T05:17:30;100410.47;;;7.75;100.00
19748;BME280;10032;51.386;12.516;2023-05-01T05:19:55;100411.91;;;7.77;100.00
19748;BME280;10032;51.386;12.516;2023-05-01T05:22:21;100410.78;;;7.85;100.00
19748;BME280;10032;51.386;12.516;2023-05-01T05:24:46;100408.66;;;8.05;100.00
19748;BME280;10032;51.386;12.516;2023-05-01T05:27:11;100404.66;;;8.43;100.00
19748;BME280;10032;51.386;12.516;2023-05-01T05:29:37;100398.13;;;8.62;100.00
19748;BME280;10032;51.386;12.516;2023-05-01T05:32:02;100404.13;;;8.64;100.00
19748;BME280;10032;51.386;12.516;2023-05-01T05:34:28;100398.72;;;8.64;100.00
19748;BME280;10032;51.386;12.516;2023-05-01T05:36:53;100392.84;;;8.56;100.00
19748;BME280;10032;51.386;12.516;2023-05-01T05:39:20;100393.66;;;8.56;100.00
19748;BME280;10032;51.386;12.516;2023-05-01T05:41:46;100386.16;;;8.70;100.00
19748;BME280;10032;51.386;12.516;2023-05-01T05:44:13;100396.34;;;9.09;100.00
19748;BME280;10032;51.386;12.516;2023-05-01T05:46:38;100390.69;;;9.33;100.00
19748;BME280;10032;51.386;12.516;2023-05-01T05:49:04;100391.50;;;9.45;100.00
19748;BME280;10032;51.386;12.516;2023-05-01T05:51:29;100392.34;;;9.46;100.00
19748;BME280;10032;51.386;12.516;2023-05-01T05:53:55;100399.03;;;9.55;100.00
19748;BME280;10032;51.386;12.516;2023-05-01T05:56:21;100393.59;;;9.66;100.00
19748;BME280;10032;51.386;12.516;2023-05-01T05:58:47;100391.22;;;9.81;100.00
19748;BME280;10032;51.386;12.516;2023-05-01T06:01:12;100391.78;;;9.95;100.00
19748;BME280;10032;51.386;12.516;2023-05-01T06:03:39;100383.50;;;10.13;100.00
19748;BME280;10032;51.386;12.516;2023-05-01T06:06:04;100384.88;;;10.27;100.00
19748;BME280;10032;51.386;12.516;2023-05-01T06:08:30;100376.72;;;10.38;100.00
19748;BME280;10032;51.386;12.516;2023-05-01T06:10:56;100372.47;;;10.42;100.00
19748;BME280;10032;51.386;12.516;2023-05-01T06:13:23;100372.16;;;10.55;100.00
19748;BME280;10032;51.386;12.516;2023-05-01T06:15:48;100367.72;;;10.66;100.00
19748;BME280;10032;51.386;12.516;2023-05-01T06:18:14;100366.41;;;10.68;100.00
19748;BME280;10032;51.386;12.516;2023-05-01T06:20:40;100360.53;;;10.88;100.00
19748;BME280;10032;51.386;12.516;2023-05-01T06:23:05;100358.47;;;10.95;100.00
19748;BME280;10032;51.386;12.516;2023-05-01T06:25:32;100359.34;;;11.00;100.00
19748;BME280;10032;51.386;12.516;2023-05-01T06:27:58;100353.53;;;11.08;100.00
19748;BME280;10032;51.386;12.516;2023-05-01T06:30:23;100361.50;;;11.15;100.00
19748;BME280;10032;51.386;12.516;2023-05-01T06:32:48;100363.78;;;11.23;100.00
19748;BME280;10032;51.386;12.516;2023-05-01T06:35:14;100362.44;;;11.42;100.00
19748;BME280;10032;51.386;12.516;2023-05-01T06:37:40;100357.06;;;11.63;100.00
19748;BME280;10032;51.386;12.516;2023-05-01T06:40:07;100355.88;;;11.97;100.00
19748;BME280;10032;51.386;12.516;2023-05-01T06:42:32;100355.41;;;12.27;100.00
19748;BME280;10032;51.386;12.516;2023-05-01T06:44:58;100362.50;;;12.54;100.00
19748;BME280;10032;51.386;12.516;2023-05-01T06:47:23;100347.00;;;12.86;100.00
19748;BME280;10032;51.386;12.516;2023-05-01T06:49:49;100345.88;;;13.14;100.00
19748;BME280;10032;51.386;12.516;2023-05-01T06:52:14;100357.44;;;13.31;100.00
19748;BME280;10032;51.386;12.516;2023-05-01T06:54:40;100342.63;;;13.58;100.00
19748;BME280;10032;51.386;12.516;2023-05-01T06:57:05;100344.06;;;13.71;100.00
19748;BME280;10032;51.386;12.516;2023-05-01T06:59:31;100337.88;;;13.95;100.00
19748;BME280;10032;51.386;12.516;2023-05-01T07:01:56;100339.31;;;14.13;100.00
19748;BME280;10032;51.386;12.516;2023-05-01T07:04:22;100342.88;;;14.13;96.82
19748;BME280;10032;51.386;12.516;2023-05-01T07:06:48;100333.00;;;13.92;95.20
19748;BME280;10032;51.386;12.516;2023-05-01T07:09:13;100334.44;;;14.15;98.39
19748;BME280;10032;51.386;12.516;2023-05-01T07:11:39;100336.94;;;14.31;96.81
19748;BME280;10032;51.386;12.516;2023-05-01T07:14:07;100335.88;;;14.37;95.19
19748;BME280;10032;51.386;12.516;2023-05-01T07:16:32;100329.66;;;14.57;96.59
19748;BME280;10032;51.386;12.516;2023-05-01T07:18:58;100335.66;;;14.89;96.78
19748;BME280;10032;51.386;12.516;2023-05-01T07:21:23;100319.81;;;15.11;95.15
19748;BME280;10032;51.386;12.516;2023-05-01T07:23:49;100327.16;;;15.30;94.39
19748;BME280;10032;51.386;12.516;2023-05-01T07:26:14;100328.28;;;15.39;91.09
19748;BME280;10032;51.386;12.516;2023-05-01T07:28:40;100326.06;;;15.36;87.62
19748;BME280;10032;51.386;12.516;2023-05-01T07:31:08;100316.50;;;15.19;87.32
19748;BME280;10032;51.386;12.516;2023-05-01T07:33:33;100308.03;;;15.30;87.11
19748;BME280;10032;51.386;12.516;2023-05-01T07:35:59;100313.50;;;15.25;85.40
19748;BME280;10032;51.386;12.516;2023-05-01T07:38:24;100311.91;;;15.34;84.69
19748;BME280;10032;51.386;12.516;2023-05-01T07:40:53;100311.84;;;15.49;85.31
19748;BME280;10032;51.386;12.516;2023-05-01T07:43:19;100310.13;;;15.73;85.21
19748;BME280;10032;51.386;12.516;2023-05-01T07:45:59;100309.56;;;15.81;86.08
19748;BME280;10032;51.386;12.516;2023-05-01T07:48:26;100312.66;;;16.18;85.58
19748;BME280;10032;51.386;12.516;2023-05-01T07:50:53;100316.63;;;16.41;84.88
19748;BME280;10032;51.386;12.516;2023-05-01T07:53:19;100313.50;;;16.57;83.53
19748;BME280;10032;51.386;12.516;2023-05-01T07:55:44;100317.28;;;16.66;83.53
19748;BME280;10032;51.386;12.516;2023-05-01T07:58:10;100312.28;;;16.73;83.07
19748;BME280;10032;51.386;12.516;2023-05-01T08:00:35;100307.03;;;16.82;82.29
19748;BME280;10032;51.386;12.516;2023-05-01T08:03:01;100312.13;;;16.93;82.58
19748;BME280;10032;51.386;12.516;2023-05-01T08:05:27;100306.63;;;16.98;80.06
19748;BME280;10032;51.386;12.516;2023-05-01T08:07:52;100305.03;;;16.92;79.25
19748;BME280;10032;51.386;12.516;2023-05-01T08:10:17;100298.22;;;17.18;80.23
19748;BME280;10032;51.386;12.516;2023-05-01T08:12:43;100295.81;;;17.40;80.53
19748;BME280;10032;51.386;12.516;2023-05-01T08:15:08;100289.63;;;17.53;78.83
19748;BME280;10032;51.386;12.516;2023-05-01T08:17:34;100287.88;;;17.62;78.71
19748;BME280;10032;51.386;12.516;2023-05-01T08:20:00;100284.75;;;17.74;78.07
19748;BME280;10032;51.386;12.516;2023-05-01T08:22:26;100285.78;;;17.54;74.69
19748;BME280;10032;51.386;12.516;2023-05-01T08:24:51;100284.97;;;17.54;73.09
19748;BME280;10032;51.386;12.516;2023-05-01T08:27:17;100286.38;;;17.75;75.05
19748;BME280;10032;51.386;12.516;2023-05-01T08:29:42;100279.34;;;17.87;73.25
19748;BME280;10032;51.386;12.516;2023-05-01T08:32:08;100280.53;;;17.81;70.67
19748;BME280;10032;51.386;12.516;2023-05-01T08:34:33;100286.16;;;17.71;69.85
19748;BME280;10032;51.386;12.516;2023-05-01T08:37:00;100290.47;;;17.96;70.88
19748;BME280;10032;51.386;12.516;2023-05-01T08:39:26;100282.91;;;18.06;70.09
19748;BME280;10032;51.386;12.516;2023-05-01T08:41:51;100273.50;;;18.31;69.45
19748;BME280;10032;51.386;12.516;2023-05-01T08:44:18;100285.22;;;18.18;68.17
19748;BME280;10032;51.386;12.516;2023-05-01T08:49:31;100265.59;;;18.66;69.02
19748;BME280;10032;51.386;12.516;2023-05-01T08:52:00;100266.00;;;18.73;67.22
19748;BME280;10032;51.386;12.516;2023-05-01T08:54:26;100272.53;;;18.77;65.68
19748;BME280;10032;51.386;12.516;2023-05-01T08:56:54;100263.81;;;18.89;65.03
19748;BME280;10032;51.386;12.516;2023-05-01T08:59:25;100263.00;;;18.88;64.88
19748;BME280;10032;51.386;12.516;2023-05-01T09:01:53;100260.78;;;19.04;66.01
19748;BME280;10032;51.386;12.516;2023-05-01T09:04:20;100255.91;;;19.33;65.19
19748;BME280;10032;51.386;12.516;2023-05-01T09:06:46;100255.47;;;19.39;64.44
19748;BME280;10032;51.386;12.516;2023-05-01T09:09:11;100248.97;;;19.62;63.09
19748;BME280;10032;51.386;12.516;2023-05-01T09:11:37;100239.91;;;19.62;61.95
19748;BME280;10032;51.386;12.516;2023-05-01T09:14:02;100238.38;;;19.69;61.33
19748;BME280;10032;51.386;12.516;2023-05-01T09:16:32;100246.63;;;19.56;55.41
19748;BME280;10032;51.386;12.516;2023-05-01T09:18:59;100240.63;;;19.40;56.27
19748;BME280;10032;51.386;12.516;2023-05-01T09:21:26;100232.06;;;19.82;58.91
19748;BME280;10032;51.386;12.516;2023-05-01T09:23:52;100227.97;;;19.80;56.82
19748;BME280;10032;51.386;12.516;2023-05-01T09:26:18;100224.72;;;19.78;55.56
19748;BME280;10032;51.386;12.516;2023-05-01T09:28:45;100227.75;;;19.90;57.08
19748;BME280;10032;51.386;12.516;2023-05-01T09:31:27;100223.91;;;20.26;54.55
19748;BME280;10032;51.386;12.516;2023-05-01T09:33:58;100224.28;;;20.33;56.21
19748;BME280;10032;51.386;12.516;2023-05-01T09:36:25;100221.53;;;20.55;55.96
19748;BME280;10032;51.386;12.516;2023-05-01T09:38:51;100215.81;;;20.74;54.81
19748;BME280;10032;51.386;12.516;2023-05-01T09:41:17;100218.66;;;20.82;52.21
19748;BME280;10032;51.386;12.516;2023-05-01T09:43:48;100218.41;;;20.70;51.56
19748;BME280;10032;51.386;12.516;2023-05-01T09:46:15;100206.56;;;20.92;52.84
19748;BME280;10032;51.386;12.516;2023-05-01T09:48:51;100217.22;;;21.15;52.08
19748;BME280;10032;51.386;12.516;2023-05-01T09:51:27;100214.75;;;21.05;48.59
19748;BME280;10032;51.386;12.516;2023-05-01T09:53:57;100200.50;;;21.03;50.21
19748;BME280;10032;51.386;12.516;2023-05-01T09:56:27;100196.81;;;21.16;50.45
19748;BME280;10032;51.386;12.516;2023-05-01T09:58:54;100203.16;;;21.25;49.93
19748;BME280;10032;51.386;12.516;2023-05-01T10:01:49;100194.00;;;21.55;48.19
19748;BME280;10032;51.386;12.516;2023-05-01T10:04:14;100197.50;;;21.78;48.61
19748;BME280;10032;51.386;12.516;2023-05-01T10:06:40;100207.56;;;21.82;47.17
19748;BME280;10032;51.386;12.516;2023-05-01T10:09:06;100196.13;;;21.58;46.45
19748;BME280;10032;51.386;12.516;2023-05-01T10:11:49;100185.31;;;21.79;46.61
19748;BME280;10032;51.386;12.516;2023-05-01T10:14:16;100180.31;;;21.89;46.30
19748;BME280;10032;51.386;12.516;2023-05-01T10:16:41;100177.25;;;21.99;45.53
19748;BME280;10032;51.386;12.516;2023-05-01T10:19:07;100182.78;;;22.08;44.42
19748;BME280;10032;51.386;12.516;2023-05-01T10:21:34;100178.13;;;21.52;42.73
19748;BME280;10032;51.386;12.516;2023-05-01T10:24:01;100172.16;;;21.67;44.35
19748;BME280;10032;51.386;12.516;2023-05-01T10:26:33;100164.44;;;22.20;44.15
19748;BME280;10032;51.386;12.516;2023-05-01T10:29:00;100161.66;;;22.46;43.90
19748;BME280;10032;51.386;12.516;2023-05-01T10:31:26;100167.00;;;22.59;43.92
19748;BME280;10032;51.386;12.516;2023-05-01T10:33:53;100160.66;;;22.67;42.38
19748;BME280;10032;51.386;12.516;2023-05-01T10:36:26;100156.03;;;22.88;43.56
19748;BME280;10032;51.386;12.516;2023-05-01T10:38:54;100154.94;;;23.18;41.57
19748;BME280;10032;51.386;12.516;2023-05-01T10:44:26;100143.16;;;23.59;41.78
19748;BME280;10032;51.386;12.516;2023-05-01T10:46:53;100141.22;;;23.59;40.26
19748;BME280;10032;51.386;12.516;2023-05-01T10:49:18;100127.06;;;23.61;41.59
19748;BME280;10032;51.386;12.516;2023-05-01T10:51:57;100122.94;;;23.38;39.13
19748;BME280;10032;51.386;12.516;2023-05-01T10:54:25;100127.44;;;23.13;39.43
19748;BME280;10032;51.386;12.516;2023-05-01T10:56:51;100124.84;;;23.25;40.18
19748;BME280;10032;51.386;12.516;2023-05-01T10:59:17;100112.13;;;23.24;39.14
19748;BME280;10032;51.386;12.516;2023-05-01T11:01:43;100119.94;;;22.93;40.09
19748;BME280;10032;51.386;12.516;2023-05-01T11:09:52;100103.44;;;23.34;38.66
19748;BME280;10032;51.386;12.516;2023-05-01T11:15:10;100104.03;;;23.19;38.17
19748;BME280;10032;51.386;12.516;2023-05-01T11:20:08;100096.81;;;23.56;38.82
19748;BME280;10032;51.386;12.516;2023-05-01T11:22:35;100095.91;;;23.43;38.15
19748;BME280;10032;51.386;12.516;2023-05-01T11:25:01;100097.59;;;23.56;38.42
19748;BME280;10032;51.386;12.516;2023-05-01T11:27:29;100094.50;;;23.37;38.01
19748;BME280;10032;51.386;12.516;2023-05-01T11:29:57;100088.72;;;23.71;39.10
19748;BME280;10032;51.386;12.516;2023-05-01T11:32:25;100089.56;;;24.25;38.54
19748;BME280;10032;51.386;12.516;2023-05-01T11:34:52;100080.63;;;24.52;39.00
19748;BME280;10032;51.386;12.516;2023-05-01T11:37:19;100072.38;;;24.64;38.14
19748;BME280;10032;51.386;12.516;2023-05-01T11:39:49;100061.66;;;24.62;38.27
19748;BME280;10032;51.386;12.516;2023-05-01T11:42:19;100057.06;;;24.34;37.26
19748;BME280;10032;51.386;12.516;2023-05-01T11:45:04;100055.09;;;24.46;37.96
19748;BME280;10032;51.386;12.516;2023-05-01T11:47:33;100057.28;;;24.41;37.22
19748;BME280;10032;51.386;12.516;2023-05-01T11:49:59;100044.91;;;24.26;37.26
19748;BME280;10032;51.386;12.516;2023-05-01T11:52:27;100046.13;;;24.17;37.75
19748;BME280;10032;51.386;12.516;2023-05-01T11:54:53;100046.63;;;24.63;37.75
19748;BME280;10032;51.386;12.516;2023-05-01T11:57:18;100041.69;;;24.81;37.48
19748;BME280;10032;51.386;12.516;2023-05-01T11:59:47;100035.75;;;24.82;35.83
19748;BME280;10032;51.386;12.516;2023-05-01T12:02:19;100031.63;;;25.00;37.16
19748;BME280;10032;51.386;12.516;2023-05-01T12:04:45;100026.53;;;25.02;36.75
19748;BME280;10032;51.386;12.516;2023-05-01T12:07:23;100021.09;;;25.06;36.11
19748;BME280;10032;51.386;12.516;2023-05-01T12:09:49;100018.22;;;25.26;35.38
19748;BME280;10032;51.386;12.516;2023-05-01T12:12:15;100028.25;;;24.95;35.45
19748;BME280;10032;51.386;12.516;2023-05-01T12:14:41;100023.97;;;25.21;36.13
19748;BME280;10032;51.386;12.516;2023-05-01T12:17:07;100016.00;;;25.32;36.08
19748;BME280;10032;51.386;12.516;2023-05-01T12:19:45;100007.19;;;25.42;35.28
19748;BME280;10032;51.386;12.516;2023-05-01T12:22:13;100009.75;;;25.62;35.96
19748;BME280;10032;51.386;12.516;2023-05-01T12:24:49;100005.78;;;25.75;35.96
19748;BME280;10032;51.386;12.516;2023-05-01T12:27:15;99998.94;;;25.57;35.28
19748;BME280;10032;51.386;12.516;2023-05-01T12:29:41;100003.06;;;25.63;35.84
19748;BME280;10032;51.386;12.516;2023-05-01T12:32:11;99992.22;;;25.58;34.85
19748;BME280;10032;51.386;12.516;2023-05-01T12:34:36;100000.41;;;25.15;35.24
19748;BME280;10032;51.386;12.516;2023-05-01T12:37:02;99996.44;;;25.40;35.52
19748;BME280;10032;51.386;12.516;2023-05-01T12:39:36;99991.16;;;25.63;36.38
19748;BME280;10032;51.386;12.516;2023-05-01T12:42:03;99988.84;;;25.92;35.23
19748;BME280;10032;51.386;12.516;2023-05-01T12:44:35;99985.50;;;25.59;34.87
19748;BME280;10032;51.386;12.516;2023-05-01T12:47:07;99980.91;;;25.51;34.48
19748;BME280;10032;51.386;12.516;2023-05-01T12:49:34;99979.38;;;25.81;34.88
19748;BME280;10032;51.386;12.516;2023-05-01T12:52:04;99976.06;;;26.03;34.91
19748;BME280;10032;51.386;12.516;2023-05-01T12:54:35;99973.00;;;26.08;34.65
19748;BME280;10032;51.386;12.516;2023-05-01T12:57:12;99974.28;;;25.83;33.96
19748;BME280;10032;51.386;12.516;2023-05-01T12:59:42;99968.72;;;25.16;32.77
19748;BME280;10032;51.386;12.516;2023-05-01T13:02:12;99969.09;;;25.03;32.80
19748;BME280;10032;51.386;12.516;2023-05-01T13:04:44;99964.53;;;25.34;33.98
19748;BME280;10032;51.386;12.516;2023-05-01T13:07:17;99969.75;;;25.24;33.91
19748;BME280;10032;51.386;12.516;2023-05-01T13:09:58;99953.78;;;25.21;35.03
19748;BME280;10032;51.386;12.516;2023-05-01T13:12:25;99955.78;;;25.20;34.13
19748;BME280;10032;51.386;12.516;2023-05-01T13:14:51;99971.88;;;24.91;34.62
19748;BME280;10032;51.386;12.516;2023-05-01T13:17:22;99964.59;;;24.98;36.18
19748;BME280;10032;51.386;12.516;2023-05-01T13:22:34;99956.28;;;24.86;35.92
19748;BME280;10032;51.386;12.516;2023-05-01T13:25:04;99962.78;;;24.78;36.18